Terminal Aerodrome Forecast
Issued by NWS

Home | Current Version | Previous Version | Text Only | Print | Product List | Glossary On
Versions: 1 2 3 4 5 6 7 8 9 10 11 12 13 14 15 16 17 18
000
FTUS43 KAPX 201733
TAFTVC
TAF
KTVC 201733Z 2018/2118 29013G21KT 5SM -SHSN SCT015 OVC035
      TEMPO 2018/2022 1SM -SHSN BLSN OVC020
     FM202200 29008KT P6SM -SHSN BKN035
      TEMPO 2022/2102 3SM -SHSN OVC025
     FM210200 28007KT P6SM -SHSN SCT020 OVC040
     FM211500 23007KT P6SM BKN035=

USA.gov is the U.S. government's official web portal to all federal, state and local government web resources and services.